sensor_id;sensor_type;location;lat;lon;timestamp;temperature;humidity
51615;DHT22;37695;52.960;6.188;2023-03-19T00:01:59;10.50;99.90
51615;DHT22;37695;52.960;6.188;2023-03-19T00:04:25;10.50;99.90
51615;DHT22;37695;52.960;6.188;2023-03-19T00:06:51;10.50;99.90
51615;DHT22;37695;52.960;6.188;2023-03-19T00:09:18;10.50;99.90
51615;DHT22;37695;52.960;6.188;2023-03-19T00:11:44;10.50;99.90
51615;DHT22;37695;52.960;6.188;2023-03-19T00:14:10;9.70;99.90
51615;DHT22;37695;52.960;6.188;2023-03-19T00:16:36;10.40;99.90
51615;DHT22;37695;52.960;6.188;2023-03-19T00:19:02;10.40;99.90
51615;DHT22;37695;52.960;6.188;2023-03-19T00:21:28;10.50;99.90
51615;DHT22;37695;52.960;6.188;2023-03-19T00:23:54;10.50;99.90
51615;DHT22;37695;52.960;6.188;2023-03-19T00:26:26;10.50;99.90
51615;DHT22;37695;52.960;6.188;2023-03-19T00:28:51;10.50;99.90
51615;DHT22;37695;52.960;6.188;2023-03-19T00:31:17;10.60;99.90
51615;DHT22;37695;52.960;6.188;2023-03-19T00:33:43;10.60;99.90
51615;DHT22;37695;52.960;6.188;2023-03-19T00:36:10;10.60;99.90
51615;DHT22;37695;52.960;6.188;2023-03-19T00:38:36;10.70;99.90
51615;DHT22;37695;52.960;6.188;2023-03-19T00:41:02;10.70;99.90
51615;DHT22;37695;52.960;6.188;2023-03-19T00:43:29;10.70;99.90
51615;DHT22;37695;52.960;6.188;2023-03-19T00:45:55;10.70;99.90
51615;DHT22;37695;52.960;6.188;2023-03-19T00:48:20;10.70;99.90
51615;DHT22;37695;52.960;6.188;2023-03-19T00:50:47;10.70;99.90
51615;DHT22;37695;52.960;6.188;2023-03-19T00:53:13;10.70;99.90
51615;DHT22;37695;52.960;6.188;2023-03-19T00:55:39;10.70;99.90
51615;DHT22;37695;52.960;6.188;2023-03-19T00:58:04;10.70;99.90
51615;DHT22;37695;52.960;6.188;2023-03-19T01:00:35;10.70;99.90
51615;DHT22;37695;52.960;6.188;2023-03-19T01:03:01;10.70;99.90
51615;DHT22;37695;52.960;6.188;2023-03-19T01:05:26;10.70;99.90
51615;DHT22;37695;52.960;6.188;2023-03-19T01:07:52;10.70;99.90
51615;DHT22;37695;52.960;6.188;2023-03-19T01:10:19;10.70;99.90
51615;DHT22;37695;52.960;6.188;2023-03-19T01:12:46;10.70;99.90
51615;DHT22;37695;52.960;6.188;2023-03-19T01:15:12;10.70;99.90
51615;DHT22;37695;52.960;6.188;2023-03-19T01:17:37;10.70;99.90
51615;DHT22;37695;52.960;6.188;2023-03-19T01:20:04;10.70;99.90
51615;DHT22;37695;52.960;6.188;2023-03-19T01:22:35;10.80;99.90
51615;DHT22;37695;52.960;6.188;2023-03-19T01:25:03;10.80;99.90
51615;DHT22;37695;52.960;6.188;2023-03-19T01:27:30;10.80;99.90
51615;DHT22;37695;52.960;6.188;2023-03-19T01:29:55;10.80;99.90
51615;DHT22;37695;52.960;6.188;2023-03-19T01:32:21;10.80;99.90
51615;DHT22;37695;52.960;6.188;2023-03-19T01:34:47;10.80;99.90
51615;DHT22;37695;52.960;6.188;2023-03-19T01:37:13;10.80;99.90
51615;DHT22;37695;52.960;6.188;2023-03-19T01:39:38;10.80;99.90
51615;DHT22;37695;52.960;6.188;2023-03-19T01:42:05;10.80;99.90
51615;DHT22;37695;52.960;6.188;2023-03-19T01:44:37;10.80;99.90
51615;DHT22;37695;52.960;6.188;2023-03-19T01:49:46;10.80;99.90
51615;DHT22;37695;52.960;6.188;2023-03-19T01:52:17;10.80;99.90
51615;DHT22;37695;52.960;6.188;2023-03-19T01:54:43;10.80;99.90
51615;DHT22;37695;52.960;6.188;2023-03-19T01:57:11;10.80;99.90
51615;DHT22;37695;52.960;6.188;2023-03-19T01:59:46;10.70;99.90
51615;DHT22;37695;52.960;6.188;2023-03-19T02:02:24;10.70;99.90
51615;DHT22;37695;52.960;6.188;2023-03-19T02:04:57;10.70;99.90
51615;DHT22;37695;52.960;6.188;2023-03-19T02:07:25;10.70;99.90
51615;DHT22;37695;52.960;6.188;2023-03-19T02:09:52;10.70;99.90
51615;DHT22;37695;52.960;6.188;2023-03-19T02:12:18;10.70;99.90
51615;DHT22;37695;52.960;6.188;2023-03-19T02:14:43;10.70;99.90
51615;DHT22;37695;52.960;6.188;2023-03-19T02:17:10;10.70;99.90
51615;DHT22;37695;52.960;6.188;2023-03-19T02:22:25;10.70;99.90
51615;DHT22;37695;52.960;6.188;2023-03-19T02:25:13;10.70;99.90
51615;DHT22;37695;52.960;6.188;2023-03-19T02:27:41;10.70;99.90
51615;DHT22;37695;52.960;6.188;2023-03-19T02:30:36;10.60;99.90
51615;DHT22;37695;52.960;6.188;2023-03-19T02:33:02;10.60;99.90
51615;DHT22;37695;52.960;6.188;2023-03-19T02:35:31;10.60;99.90
51615;DHT22;37695;52.960;6.188;2023-03-19T02:37:58;10.60;99.90
51615;DHT22;37695;52.960;6.188;2023-03-19T02:40:28;10.50;99.90
51615;DHT22;37695;52.960;6.188;2023-03-19T02:42:55;10.50;99.90
51615;DHT22;37695;52.960;6.188;2023-03-19T02:45:22;10.50;99.90
51615;DHT22;37695;52.960;6.188;2023-03-19T02:47:47;10.50;99.90
51615;DHT22;37695;52.960;6.188;2023-03-19T02:50:13;10.50;99.90
51615;DHT22;37695;52.960;6.188;2023-03-19T02:52:39;10.50;99.90
51615;DHT22;37695;52.960;6.188;2023-03-19T02:55:05;10.50;99.90
51615;DHT22;37695;52.960;6.188;2023-03-19T02:57:30;10.60;99.90
51615;DHT22;37695;52.960;6.188;2023-03-19T02:59:56;10.60;99.90
51615;DHT22;37695;52.960;6.188;2023-03-19T03:02:21;10.60;99.90
51615;DHT22;37695;52.960;6.188;2023-03-19T03:04:47;10.60;99.90
51615;DHT22;37695;52.960;6.188;2023-03-19T03:07:13;10.70;99.90
51615;DHT22;37695;52.960;6.188;2023-03-19T03:09:38;10.70;99.90
51615;DHT22;37695;52.960;6.188;2023-03-19T03:12:04;10.70;99.90
51615;DHT22;37695;52.960;6.188;2023-03-19T03:14:30;10.70;99.90
51615;DHT22;37695;52.960;6.188;2023-03-19T03:16:56;10.70;99.90
51615;DHT22;37695;52.960;6.188;2023-03-19T03:19:23;10.70;99.90
51615;DHT22;37695;52.960;6.188;2023-03-19T03:21:48;10.70;99.90
51615;DHT22;37695;52.960;6.188;2023-03-19T03:24:14;10.70;99.90
51615;DHT22;37695;52.960;6.188;2023-03-19T03:26:40;10.70;99.90
51615;DHT22;37695;52.960;6.188;2023-03-19T03:29:06;10.80;99.90
51615;DHT22;37695;52.960;6.188;2023-03-19T03:31:31;10.70;99.90
51615;DHT22;37695;52.960;6.188;2023-03-19T03:33:57;10.70;99.90
51615;DHT22;37695;52.960;6.188;2023-03-19T03:36:23;10.70;99.90
51615;DHT22;37695;52.960;6.188;2023-03-19T03:38:48;10.70;99.90
51615;DHT22;37695;52.960;6.188;2023-03-19T03:41:14;10.70;99.90
51615;DHT22;37695;52.960;6.188;2023-03-19T03:43:40;10.80;99.90
51615;DHT22;37695;52.960;6.188;2023-03-19T03:46:06;10.70;99.90
51615;DHT22;37695;52.960;6.188;2023-03-19T03:48:33;10.70;99.90
51615;DHT22;37695;52.960;6.188;2023-03-19T03:50:59;10.70;99.90
51615;DHT22;37695;52.960;6.188;2023-03-19T03:53:25;10.80;99.90
51615;DHT22;37695;52.960;6.188;2023-03-19T03:55:50;10.80;99.90
51615;DHT22;37695;52.960;6.188;2023-03-19T03:58:16;10.70;99.90
51615;DHT22;37695;52.960;6.188;2023-03-19T04:00:42;10.80;99.90
51615;DHT22;37695;52.960;6.188;2023-03-19T04:03:08;10.80;99.90
51615;DHT22;37695;52.960;6.188;2023-03-19T04:05:34;10.70;99.90
51615;DHT22;37695;52.960;6.188;2023-03-19T04:08:00;10.70;99.90
51615;DHT22;37695;52.960;6.188;2023-03-19T04:10:28;10.70;99.90
51615;DHT22;37695;52.960;6.188;2023-03-19T04:12:54;10.70;99.90
51615;DHT22;37695;52.960;6.188;2023-03-19T04:15:19;10.70;99.90
51615;DHT22;37695;52.960;6.188;2023-03-19T04:17:45;10.70;99.90
51615;DHT22;37695;52.960;6.188;2023-03-19T04:20:11;10.70;99.90
51615;DHT22;37695;52.960;6.188;2023-03-19T04:22:36;10.60;99.90
51615;DHT22;37695;52.960;6.188;2023-03-19T04:25:03;10.60;99.90
51615;DHT22;37695;52.960;6.188;2023-03-19T04:27:29;10.50;99.90
51615;DHT22;37695;52.960;6.188;2023-03-19T04:29:55;10.40;99.90
51615;DHT22;37695;52.960;6.188;2023-03-19T04:32:20;10.40;99.90
51615;DHT22;37695;52.960;6.188;2023-03-19T04:34:46;10.30;99.90
51615;DHT22;37695;52.960;6.188;2023-03-19T04:37:12;10.20;99.90
51615;DHT22;37695;52.960;6.188;2023-03-19T04:39:38;10.20;99.90
51615;DHT22;37695;52.960;6.188;2023-03-19T04:42:03;10.10;99.90
51615;DHT22;37695;52.960;6.188;2023-03-19T04:44:30;10.10;99.90
51615;DHT22;37695;52.960;6.188;2023-03-19T04:46:56;10.10;99.90
51615;DHT22;37695;52.960;6.188;2023-03-19T04:49:23;10.00;99.90
51615;DHT22;37695;52.960;6.188;2023-03-19T04:51:49;9.90;99.90
51615;DHT22;37695;52.960;6.188;2023-03-19T04:54:15;9.90;99.90
51615;DHT22;37695;52.960;6.188;2023-03-19T04:56:40;9.90;99.90
51615;DHT22;37695;52.960;6.188;2023-03-19T04:59:06;9.90;99.90
51615;DHT22;37695;52.960;6.188;2023-03-19T05:01:32;9.80;99.90
51615;DHT22;37695;52.960;6.188;2023-03-19T05:03:58;9.70;99.90
51615;DHT22;37695;52.960;6.188;2023-03-19T05:06:24;9.70;99.90
51615;DHT22;37695;52.960;6.188;2023-03-19T05:08:51;9.60;99.90
51615;DHT22;37695;52.960;6.188;2023-03-19T05:11:17;9.60;99.90
51615;DHT22;37695;52.960;6.188;2023-03-19T05:13:42;9.60;99.90
51615;DHT22;37695;52.960;6.188;2023-03-19T05:16:08;9.60;99.90
51615;DHT22;37695;52.960;6.188;2023-03-19T05:18:33;9.60;99.90
51615;DHT22;37695;52.960;6.188;2023-03-19T05:20:59;9.50;99.90
51615;DHT22;37695;52.960;6.188;2023-03-19T05:23:25;9.50;99.90
51615;DHT22;37695;52.960;6.188;2023-03-19T05:25:50;9.40;99.90
51615;DHT22;37695;52.960;6.188;2023-03-19T05:28:16;9.30;99.90
51615;DHT22;37695;52.960;6.188;2023-03-19T05:30:42;9.30;99.90
51615;DHT22;37695;52.960;6.188;2023-03-19T05:33:08;9.10;99.90
51615;DHT22;37695;52.960;6.188;2023-03-19T05:35:35;9.10;99.90
51615;DHT22;37695;52.960;6.188;2023-03-19T05:38:01;9.00;99.90
51615;DHT22;37695;52.960;6.188;2023-03-19T05:40:26;8.90;99.90
51615;DHT22;37695;52.960;6.188;2023-03-19T05:42:52;8.80;99.90
51615;DHT22;37695;52.960;6.188;2023-03-19T05:45:18;8.70;99.90
51615;DHT22;37695;52.960;6.188;2023-03-19T05:47:46;8.70;99.90
51615;DHT22;37695;52.960;6.188;2023-03-19T05:50:12;8.70;99.90
51615;DHT22;37695;52.960;6.188;2023-03-19T05:52:38;9.30;99.90
51615;DHT22;37695;52.960;6.188;2023-03-19T05:55:04;8.60;99.90
51615;DHT22;37695;52.960;6.188;2023-03-19T05:57:30;8.60;99.90
51615;DHT22;37695;52.960;6.188;2023-03-19T05:59:55;8.50;99.90
51615;DHT22;37695;52.960;6.188;2023-03-19T06:02:21;8.50;99.90
51615;DHT22;37695;52.960;6.188;2023-03-19T06:04:46;8.50;99.90
51615;DHT22;37695;52.960;6.188;2023-03-19T06:07:12;8.50;99.90
51615;DHT22;37695;52.960;6.188;2023-03-19T06:09:39;8.50;99.90
51615;DHT22;37695;52.960;6.188;2023-03-19T06:12:05;8.50;99.90
51615;DHT22;37695;52.960;6.188;2023-03-19T06:14:31;8.50;99.90
51615;DHT22;37695;52.960;6.188;2023-03-19T06:16:57;8.50;99.90
51615;DHT22;37695;52.960;6.188;2023-03-19T06:19:22;8.40;99.90
51615;DHT22;37695;52.960;6.188;2023-03-19T06:21:48;8.30;99.90
51615;DHT22;37695;52.960;6.188;2023-03-19T06:24:13;8.40;99.90
51615;DHT22;37695;52.960;6.188;2023-03-19T06:26:39;8.30;99.90
51615;DHT22;37695;52.960;6.188;2023-03-19T06:29:04;8.40;99.90
51615;DHT22;37695;52.960;6.188;2023-03-19T06:31:30;8.40;99.90
51615;DHT22;37695;52.960;6.188;2023-03-19T06:33:56;8.40;99.90
51615;DHT22;37695;52.960;6.188;2023-03-19T06:36:21;8.40;99.90
51615;DHT22;37695;52.960;6.188;2023-03-19T06:38:47;8.50;99.90
51615;DHT22;37695;52.960;6.188;2023-03-19T06:41:13;8.50;99.90
51615;DHT22;37695;52.960;6.188;2023-03-19T06:43:38;8.50;99.90
51615;DHT22;37695;52.960;6.188;2023-03-19T06:46:07;8.60;99.90
51615;DHT22;37695;52.960;6.188;2023-03-19T06:48:33;8.60;99.90
51615;DHT22;37695;52.960;6.188;2023-03-19T06:50:59;8.70;99.90
51615;DHT22;37695;52.960;6.188;2023-03-19T06:53:26;8.80;99.90
51615;DHT22;37695;52.960;6.188;2023-03-19T06:55:51;8.80;99.90
51615;DHT22;37695;52.960;6.188;2023-03-19T06:58:17;8.90;99.90
51615;DHT22;37695;52.960;6.188;2023-03-19T07:00:43;9.00;99.90
51615;DHT22;37695;52.960;6.188;2023-03-19T07:03:09;9.00;99.90
51615;DHT22;37695;52.960;6.188;2023-03-19T07:05:35;9.10;99.90
51615;DHT22;37695;52.960;6.188;2023-03-19T07:08:00;9.20;99.90
51615;DHT22;37695;52.960;6.188;2023-03-19T07:10:26;9.20;99.90
51615;DHT22;37695;52.960;6.188;2023-03-19T07:12:52;9.30;99.90
51615;DHT22;37695;52.960;6.188;2023-03-19T07:15:18;9.40;99.90
51615;DHT22;37695;52.960;6.188;2023-03-19T07:17:46;9.50;99.90
51615;DHT22;37695;52.960;6.188;2023-03-19T07:20:12;9.50;99.90
51615;DHT22;37695;52.960;6.188;2023-03-19T07:22:38;9.60;99.90
51615;DHT22;37695;52.960;6.188;2023-03-19T07:25:04;9.70;99.90
51615;DHT22;37695;52.960;6.188;2023-03-19T07:27:29;9.70;99.90
51615;DHT22;37695;52.960;6.188;2023-03-19T07:29:55;9.80;99.90
51615;DHT22;37695;52.960;6.188;2023-03-19T07:32:21;9.80;99.90
51615;DHT22;37695;52.960;6.188;2023-03-19T07:34:48;9.90;99.90
51615;DHT22;37695;52.960;6.188;2023-03-19T07:37:13;10.00;99.90
51615;DHT22;37695;52.960;6.188;2023-03-19T07:39:39;10.10;99.90
51615;DHT22;37695;52.960;6.188;2023-03-19T07:42:05;10.20;99.90
51615;DHT22;37695;52.960;6.188;2023-03-19T07:44:31;10.40;99.90
51615;DHT22;37695;52.960;6.188;2023-03-19T07:46:56;10.60;99.90
51615;DHT22;37695;52.960;6.188;2023-03-19T07:49:22;10.60;99.90
51615;DHT22;37695;52.960;6.188;2023-03-19T07:51:48;10.70;99.90
51615;DHT22;37695;52.960;6.188;2023-03-19T07:54:13;10.80;99.90
51615;DHT22;37695;52.960;6.188;2023-03-19T07:56:39;10.80;99.90
51615;DHT22;37695;52.960;6.188;2023-03-19T07:59:04;10.80;99.90
51615;DHT22;37695;52.960;6.188;2023-03-19T08:01:30;10.80;99.90
51615;DHT22;37695;52.960;6.188;2023-03-19T08:03:56;10.90;99.90
51615;DHT22;37695;52.960;6.188;2023-03-19T08:06:22;10.90;99.90
51615;DHT22;37695;52.960;6.188;2023-03-19T08:08:48;10.90;99.90
51615;DHT22;37695;52.960;6.188;2023-03-19T08:11:13;10.90;99.90
51615;DHT22;37695;52.960;6.188;2023-03-19T08:13:39;10.80;99.90
51615;DHT22;37695;52.960;6.188;2023-03-19T08:16:05;10.80;99.90
51615;DHT22;37695;52.960;6.188;2023-03-19T08:18:30;10.70;99.90
51615;DHT22;37695;52.960;6.188;2023-03-19T08:20:56;10.70;99.90
51615;DHT22;37695;52.960;6.188;2023-03-19T08:23:22;11.50;99.90
51615;DHT22;37695;52.960;6.188;2023-03-19T08:25:47;10.80;99.90
51615;DHT22;37695;52.960;6.188;2023-03-19T08:28:16;10.90;99.90
51615;DHT22;37695;52.960;6.188;2023-03-19T08:30:41;11.00;99.90
51615;DHT22;37695;52.960;6.188;2023-03-19T08:33:07;11.00;99.90
51615;DHT22;37695;52.960;6.188;2023-03-19T08:35:33;11.00;99.90
51615;DHT22;37695;52.960;6.188;2023-03-19T08:37:58;11.00;99.90
51615;DHT22;37695;52.960;6.188;2023-03-19T08:40:24;11.00;99.90
51615;DHT22;37695;52.960;6.188;2023-03-19T08:42:50;11.10;99.90
51615;DHT22;37695;52.960;6.188;2023-03-19T08:45:15;11.30;99.90
51615;DHT22;37695;52.960;6.188;2023-03-19T08:47:42;11.50;99.90
51615;DHT22;37695;52.960;6.188;2023-03-19T08:50:08;11.60;99.90
51615;DHT22;37695;52.960;6.188;2023-03-19T08:52:34;11.70;99.90
51615;DHT22;37695;52.960;6.188;2023-03-19T08:54:59;11.70;99.90
51615;DHT22;37695;52.960;6.188;2023-03-19T08:57:25;11.80;99.90
51615;DHT22;37695;52.960;6.188;2023-03-19T08:59:53;11.80;99.90
51615;DHT22;37695;52.960;6.188;2023-03-19T09:02:19;11.80;99.90
51615;DHT22;37695;52.960;6.188;2023-03-19T09:04:44;11.60;99.90
51615;DHT22;37695;52.960;6.188;2023-03-19T09:07:11;11.50;99.90
51615;DHT22;37695;52.960;6.188;2023-03-19T09:09:41;11.40;99.90
51615;DHT22;37695;52.960;6.188;2023-03-19T09:12:08;11.30;99.90
51615;DHT22;37695;52.960;6.188;2023-03-19T09:14:35;11.20;99.90
51615;DHT22;37695;52.960;6.188;2023-03-19T09:17:01;11.20;99.90
51615;DHT22;37695;52.960;6.188;2023-03-19T09:19:27;11.20;99.90
51615;DHT22;37695;52.960;6.188;2023-03-19T09:21:52;11.10;99.90
51615;DHT22;37695;52.960;6.188;2023-03-19T09:24:18;11.00;99.90
51615;DHT22;37695;52.960;6.188;2023-03-19T09:26:44;10.90;99.90
51615;DHT22;37695;52.960;6.188;2023-03-19T09:29:10;10.90;99.90
51615;DHT22;37695;52.960;6.188;2023-03-19T09:31:36;11.10;99.90
51615;DHT22;37695;52.960;6.188;2023-03-19T09:34:02;10.90;99.90
51615;DHT22;37695;52.960;6.188;2023-03-19T09:36:27;10.90;99.90
51615;DHT22;37695;52.960;6.188;2023-03-19T09:38:53;10.80;99.90
51615;DHT22;37695;52.960;6.188;2023-03-19T09:44:02;10.90;99.90
51615;DHT22;37695;52.960;6.188;2023-03-19T09:46:34;10.90;99.90
51615;DHT22;37695;52.960;6.188;2023-03-19T09:49:16;10.90;99.90
51615;DHT22;37695;52.960;6.188;2023-03-19T09:51:52;10.80;99.90
51615;DHT22;37695;52.960;6.188;2023-03-19T09:56:53;10.90;99.90
51615;DHT22;37695;52.960;6.188;2023-03-19T09:59:22;11.00;99.90
51615;DHT22;37695;52.960;6.188;2023-03-19T10:02:10;11.00;99.90
51615;DHT22;37695;52.960;6.188;2023-03-19T10:16:25;10.90;99.90
51615;DHT22;37695;52.960;6.188;2023-03-19T10:18:56;10.10;99.90
51615;DHT22;37695;52.960;6.188;2023-03-19T10:21:31;10.90;99.90
51615;DHT22;37695;52.960;6.188;2023-03-19T10:26:32;10.80;99.90
51615;DHT22;37695;52.960;6.188;2023-03-19T10:31:56;10.60;99.90
51615;DHT22;37695;52.960;6.188;2023-03-19T10:34:33;10.60;99.90
51615;DHT22;37695;52.960;6.188;2023-03-19T10:39:31;10.70;99.90
51615;DHT22;37695;52.960;6.188;2023-03-19T10:44:55;10.90;99.90
51615;DHT22;37695;52.960;6.188;2023-03-19T10:47:25;10.90;99.90
51615;DHT22;37695;52.960;6.188;2023-03-19T10:49:51;11.00;99.90
51615;DHT22;37695;52.960;6.188;2023-03-19T10:52:34;11.00;99.90
51615;DHT22;37695;52.960;6.188;2023-03-19T10:55:12;11.10;99.90
51615;DHT22;37695;52.960;6.188;2023-03-19T10:57:41;11.10;99.90
51615;DHT22;37695;52.960;6.188;2023-03-19T11:00:34;11.20;99.90
51615;DHT22;37695;52.960;6.188;2023-03-19T11:03:00;11.20;99.90
51615;DHT22;37695;52.960;6.188;2023-03-19T11:05:31;11.20;99.90
51615;DHT22;37695;52.960;6.188;2023-03-19T11:08:06;11.10;99.90
51615;DHT22;37695;52.960;6.188;2023-03-19T11:10:44;11.10;99.90
51615;DHT22;37695;52.960;6.188;2023-03-19T11:15:40;10.90;99.90
51615;DHT22;37695;52.960;6.188;2023-03-19T11:18:23;10.90;99.90
51615;DHT22;37695;52.960;6.188;2023-03-19T11:20:56;10.80;99.90
51615;DHT22;37695;52.960;6.188;2023-03-19T11:23:29;10.80;99.90
51615;DHT22;37695;52.960;6.188;2023-03-19T11:25:59;10.80;99.90
51615;DHT22;37695;52.960;6.188;2023-03-19T11:28:26;10.80;99.90
51615;DHT22;37695;52.960;6.188;2023-03-19T11:39:12;10.70;99.90
51615;DHT22;37695;52.960;6.188;2023-03-19T11:47:35;10.50;99.90
51615;DHT22;37695;52.960;6.188;2023-03-19T11:50:15;10.50;99.90
51615;DHT22;37695;52.960;6.188;2023-03-19T11:56:01;10.40;99.90
51615;DHT22;37695;52.960;6.188;2023-03-19T11:59:03;10.50;99.90
51615;DHT22;37695;52.960;6.188;2023-03-19T12:04:34;10.50;99.90
51615;DHT22;37695;52.960;6.188;2023-03-19T12:10:32;10.60;99.90
51615;DHT22;37695;52.960;6.188;2023-03-19T12:21:30;11.00;99.90
51615;DHT22;37695;52.960;6.188;2023-03-19T12:34:44;11.20;99.90
51615;DHT22;37695;52.960;6.188;2023-03-19T12:37:32;11.30;99.90
51615;DHT22;37695;52.960;6.188;2023-03-19T12:43:03;11.50;99.90
51615;DHT22;37695;52.960;6.188;2023-03-19T12:45:33;11.50;99.90
51615;DHT22;37695;52.960;6.188;2023-03-19T12:48:11;11.50;99.90
51615;DHT22;37695;52.960;6.188;2023-03-19T12:50:40;11.50;99.90
51615;DHT22;37695;52.960;6.188;2023-03-19T12:53:13;11.60;99.90
51615;DHT22;37695;52.960;6.188;2023-03-19T12:55:46;11.50;99.90
51615;DHT22;37695;52.960;6.188;2023-03-19T12:58:23;11.50;99.90
51615;DHT22;37695;52.960;6.188;2023-03-19T13:01:00;11.50;99.90
51615;DHT22;37695;52.960;6.188;2023-03-19T13:03:33;11.50;99.90
51615;DHT22;37695;52.960;6.188;2023-03-19T13:11:29;11.20;99.90
51615;DHT22;37695;52.960;6.188;2023-03-19T13:14:05;11.10;99.90
51615;DHT22;37695;52.960;6.188;2023-03-19T13:16:44;11.00;99.90
51615;DHT22;37695;52.960;6.188;2023-03-19T13:19:39;11.00;99.90
51615;DHT22;37695;52.960;6.188;2023-03-19T13:22:11;11.00;99.90
51615;DHT22;37695;52.960;6.188;2023-03-19T13:24:40;10.80;99.90
51615;DHT22;37695;52.960;6.188;2023-03-19T13:27:13;10.80;99.90
51615;DHT22;37695;52.960;6.188;2023-03-19T13:30:34;10.80;99.90
51615;DHT22;37695;52.960;6.188;2023-03-19T13:32:46;10.70;99.90
51615;DHT22;37695;52.960;6.188;2023-03-19T13:38:04;10.80;99.90
51615;DHT22;37695;52.960;6.188;2023-03-19T13:40:44;10.80;99.90
51615;DHT22;37695;52.960;6.188;2023-03-19T13:48:48;10.90;99.90
51615;DHT22;37695;52.960;6.188;2023-03-19T13:59:34;11.00;99.90
51615;DHT22;37695;52.960;6.188;2023-03-19T14:02:02;11.00;99.90
51615;DHT22;37695;52.960;6.188;2023-03-19T14:04:58;11.00;99.90
51615;DHT22;37695;52.960;6.188;2023-03-19T14:07:35;11.00;99.90
51615;DHT22;37695;52.960;6.188;2023-03-19T14:12:36;10.90;99.90
51615;DHT22;37695;52.960;6.188;2023-03-19T14:18:01;10.90;99.90
51615;DHT22;37695;52.960;6.188;2023-03-19T14:20:31;10.90;99.90
51615;DHT22;37695;52.960;6.188;2023-03-19T14:25:58;10.90;99.90
51615;DHT22;37695;52.960;6.188;2023-03-19T14:28:51;10.90;99.90
51615;DHT22;37695;52.960;6.188;2023-03-19T14:31:27;10.90;99.90
51615;DHT22;37695;52.960;6.188;2023-03-19T14:34:01;10.90;99.90
51615;DHT22;37695;52.960;6.188;2023-03-19T14:36:28;10.80;99.90
51615;DHT22;37695;52.960;6.188;2023-03-19T14:38:59;10.80;99.90
51615;DHT22;37695;52.960;6.188;2023-03-19T14:41:27;10.70;99.90
51615;DHT22;37695;52.960;6.188;2023-03-19T14:47:02;10.70;99.90
51615;DHT22;37695;52.960;6.188;2023-03-19T14:50:12;10.70;99.90
51615;DHT22;37695;52.960;6.188;2023-03-19T14:55:32;10.60;99.90
51615;DHT22;37695;52.960;6.188;2023-03-19T14:58:00;10.60;99.90
51615;DHT22;37695;52.960;6.188;2023-03-19T15:00:25;10.60;99.90
51615;DHT22;37695;52.960;6.188;2023-03-19T15:02:52;10.60;99.90
51615;DHT22;37695;52.960;6.188;2023-03-19T15:05:27;10.60;99.90
51615;DHT22;37695;52.960;6.188;2023-03-19T15:07:57;10.60;99.90
51615;DHT22;37695;52.960;6.188;2023-03-19T15:10:26;10.60;99.90
51615;DHT22;37695;52.960;6.188;2023-03-19T15:13:09;10.60;99.90
51615;DHT22;37695;52.960;6.188;2023-03-19T15:16:02;10.60;99.90
51615;DHT22;37695;52.960;6.188;2023-03-19T15:18:37;10.60;99.90
51615;DHT22;37695;52.960;6.188;2023-03-19T15:21:03;10.60;99.90
51615;DHT22;37695;52.960;6.188;2023-03-19T15:23:29;10.60;99.90
51615;DHT22;37695;52.960;6.188;2023-03-19T15:25:58;10.60;99.90
51615;DHT22;37695;52.960;6.188;2023-03-19T15:28:27;10.70;99.90
51615;DHT22;37695;52.960;6.188;2023-03-19T15:31:05;10.60;99.90
51615;DHT22;37695;52.960;6.188;2023-03-19T15:33:33;10.60;99.90
51615;DHT22;37695;52.960;6.188;2023-03-19T15:38:32;10.70;99.90
51615;DHT22;37695;52.960;6.188;2023-03-19T15:41:01;10.70;99.90
51615;DHT22;37695;52.960;6.188;2023-03-19T15:43:28;10.60;99.90
51615;DHT22;37695;52.960;6.188;2023-03-19T15:45:54;10.60;99.90
51615;DHT22;37695;52.960;6.188;2023-03-19T15:48:25;10.60;99.90
51615;DHT22;37695;52.960;6.188;2023-03-19T15:50:57;10.60;99.90
51615;DHT22;37695;52.960;6.188;2023-03-19T15:53:27;10.60;99.90
51615;DHT22;37695;52.960;6.188;2023-03-19T15:55:54;10.60;99.90
51615;DHT22;37695;52.960;6.188;2023-03-19T15:58:23;10.60;99.90
51615;DHT22;37695;52.960;6.188;2023-03-19T16:00:51;10.60;99.90
51615;DHT22;37695;52.960;6.188;2023-03-19T16:03:21;10.60;99.90
51615;DHT22;37695;52.960;6.188;2023-03-19T16:05:52;10.60;99.90
51615;DHT22;37695;52.960;6.188;2023-03-19T16:08:25;10.60;99.90
51615;DHT22;37695;52.960;6.188;2023-03-19T16:10:51;10.60;99.90
51615;DHT22;37695;52.960;6.188;2023-03-19T16:13:36;10.60;99.90
51615;DHT22;37695;52.960;6.188;2023-03-19T16:16:18;10.60;99.90
51615;DHT22;37695;52.960;6.188;2023-03-19T16:18:55;10.60;99.90
51615;DHT22;37695;52.960;6.188;2023-03-19T16:23:55;10.60;99.90
51615;DHT22;37695;52.960;6.188;2023-03-19T16:26:35;10.60;99.90
51615;DHT22;37695;52.960;6.188;2023-03-19T16:29:23;10.60;99.90
51615;DHT22;37695;52.960;6.188;2023-03-19T16:32:36;10.60;99.90
51615;DHT22;37695;52.960;6.188;2023-03-19T16:39:59;10.50;99.90
51615;DHT22;37695;52.960;6.188;2023-03-19T16:42:39;10.50;99.90
51615;DHT22;37695;52.960;6.188;2023-03-19T16:47:48;10.50;99.90
51615;DHT22;37695;52.960;6.188;2023-03-19T16:50:14;10.50;99.90
51615;DHT22;37695;52.960;6.188;2023-03-19T16:52:41;10.50;99.90
51615;DHT22;37695;52.960;6.188;2023-03-19T16:57:49;10.40;99.90
51615;DHT22;37695;52.960;6.188;2023-03-19T17:00:18;10.30;99.90
51615;DHT22;37695;52.960;6.188;2023-03-19T17:02:44;10.30;99.90
51615;DHT22;37695;52.960;6.188;2023-03-19T17:05:14;10.30;99.90
51615;DHT22;37695;52.960;6.188;2023-03-19T17:07:40;10.20;99.90
51615;DHT22;37695;52.960;6.188;2023-03-19T17:10:17;10.20;99.90
51615;DHT22;37695;52.960;6.188;2023-03-19T17:12:45;10.10;99.90
51615;DHT22;37695;52.960;6.188;2023-03-19T17:15:27;10.10;99.90
51615;DHT22;37695;52.960;6.188;2023-03-19T17:17:53;10.10;99.90
51615;DHT22;37695;52.960;6.188;2023-03-19T17:20:40;10.00;99.90
51615;DHT22;37695;52.960;6.188;2023-03-19T17:23:12;10.00;99.90
51615;DHT22;37695;52.960;6.188;2023-03-19T17:25:38;9.90;99.90
51615;DHT22;37695;52.960;6.188;2023-03-19T17:28:04;9.90;99.90
51615;DHT22;37695;52.960;6.188;2023-03-19T17:30:31;9.90;99.90
51615;DHT22;37695;52.960;6.188;2023-03-19T17:32:57;9.90;99.90
51615;DHT22;37695;52.960;6.188;2023-03-19T17:35:23;9.80;99.90
51615;DHT22;37695;52.960;6.188;2023-03-19T17:37:48;9.80;99.90
51615;DHT22;37695;52.960;6.188;2023-03-19T17:40:23;9.80;99.90
51615;DHT22;37695;52.960;6.188;2023-03-19T17:42:49;9.80;99.90
51615;DHT22;37695;52.960;6.188;2023-03-19T17:45:16;9.80;99.90
51615;DHT22;37695;52.960;6.188;2023-03-19T17:47:47;9.70;99.90
51615;DHT22;37695;52.960;6.188;2023-03-19T17:50:17;9.70;99.90
51615;DHT22;37695;52.960;6.188;2023-03-19T17:52:44;9.70;99.90
51615;DHT22;37695;52.960;6.188;2023-03-19T17:55:23;9.70;99.90
51615;DHT22;37695;52.960;6.188;2023-03-19T17:57:49;9.70;99.90
51615;DHT22;37695;52.960;6.188;2023-03-19T18:00:16;9.70;99.90